TimeEDT,TemperatureF,Dew PointF,Humidity,Sea Level PressureIn,VisibilityMPH,Wind Direction,Wind SpeedMPH,Gust SpeedMPH,PrecipitationIn,Events,Conditions,WindDirDegrees,DateUTC
12:56 AM,66.0,57.9,75,29.95,10.0,SSW,9.2,-,N/A,,Mostly Cloudy,210,2012-10-15 04:56:00
1:56 AM,64.9,57.9,78,29.93,10.0,SW,8.1,-,N/A,,Clear,220,2012-10-15 05:56:00
2:56 AM,66.0,57.9,75,29.91,10.0,SSW,10.4,-,N/A,,Clear,210,2012-10-15 06:56:00
3:56 AM,68.0,55.9,65,29.88,10.0,SW,13.8,-,N/A,,Clear,230,2012-10-15 07:56:00
4:56 AM,68.0,55.9,65,29.86,10.0,SW,12.7,20.7,N/A,,Mostly Cloudy,220,2012-10-15 08:56:00
5:56 AM,68.0,55.9,65,29.84,10.0,SW,15.0,23.0,N/A,,Clear,230,2012-10-15 09:56:00
6:56 AM,68.0,55.9,65,29.83,10.0,SW,15.0,-,N/A,,Overcast,230,2012-10-15 10:56:00
7:56 AM,66.9,55.9,68,29.82,10.0,SW,16.1,-,N/A,,Mostly Cloudy,230,2012-10-15 11:56:00
8:56 AM,68.0,57.0,68,29.82,10.0,WSW,11.5,-,N/A,,Mostly Cloudy,240,2012-10-15 12:56:00
9:56 AM,68.0,59.0,73,29.82,10.0,SW,10.4,19.6,N/A,,Mostly Cloudy,230,2012-10-15 13:56:00
10:56 AM,69.1,60.1,73,29.81,10.0,SW,9.2,-,0.00,,Overcast,220,2012-10-15 14:56:00
11:52 AM,69.8,60.8,73,29.78,10.0,SW,6.9,-,N/A,,Overcast,220,2012-10-15 15:52:00
11:56 AM,70.0,60.1,71,29.79,10.0,WSW,8.1,-,N/A,,Overcast,240,2012-10-15 15:56:00
12:56 PM,70.0,60.1,71,29.77,10.0,SW,8.1,-,0.00,Rain,Light Rain,230,2012-10-15 16:56:00
1:03 PM,69.8,60.8,73,29.77,10.0,SW,9.2,17.3,0.00,Rain,Light Rain,230,2012-10-15 17:03:00
1:56 PM,68.0,62.1,81,29.74,6.0,WSW,8.1,-,0.01,Rain,Light Rain,240,2012-10-15 17:56:00
2:56 PM,68.0,61.0,78,29.73,7.0,SW,11.5,-,0.00,,Mostly Cloudy,220,2012-10-15 18:56:00
3:56 PM,69.1,60.1,73,29.70,10.0,SW,10.4,-,N/A,,Overcast,220,2012-10-15 19:56:00
4:56 PM,68.0,61.0,78,29.68,10.0,SSW,6.9,-,N/A,,Mostly Cloudy,200,2012-10-15 20:56:00
5:56 PM,68.0,60.1,76,29.70,10.0,Calm,Calm,-,N/A,,Scattered Clouds,0,2012-10-15 21:56:00
6:56 PM,61.0,55.0,81,29.74,6.0,NE,9.2,-,0.00,Rain,Light Rain,50,2012-10-15 22:56:00
7:56 PM,61.0,55.9,83,29.75,10.0,NE,3.5,-,0.01,Rain,Light Rain,40,2012-10-15 23:56:00
8:05 PM,60.8,55.4,82,29.74,10.0,NNE,3.5,-,0.00,Rain-Thunderstorm,Light Thunderstorms and Rain,20,2012-10-16 00:05:00
8:21 PM,60.8,55.4,82,29.75,9.0,Calm,Calm,-,0.00,Rain,Light Rain,0,2012-10-16 00:21:00
8:56 PM,60.1,55.9,86,29.79,10.0,NNW,5.8,-,0.00,,Clear,330,2012-10-16 00:56:00
9:56 PM,59.0,50.0,72,29.80,10.0,North,11.5,19.6,0.01,,Clear,350,2012-10-16 01:56:00
10:56 PM,55.9,48.0,75,29.83,10.0,NNW,9.2,-,N/A,,Clear,330,2012-10-16 02:56:00
11:56 PM,55.9,45.0,67,29.85,10.0,NNW,8.1,-,N/A,,Clear,330,2012-10-16 03:56:00